createdAt,value
2022-10-03T00:04:12.286Z,83.23
2022-10-03T00:09:40.772Z,83.49
2022-10-03T00:15:05.873Z,83.31
2022-10-03T00:20:31.167Z,83.45
2022-10-03T00:25:42.501Z,83.65
2022-10-03T00:30:56.712Z,83.81
2022-10-03T00:36:05.176Z,83.72
2022-10-03T00:41:16.213Z,83.77
2022-10-03T00:46:57.826Z,83.92
2022-10-03T00:52:42.118Z,83.85
2022-10-03T00:58:13.278Z,83.95
2022-10-03T01:03:21.717Z,84.23
2022-10-03T01:08:51.396Z,84.51
2022-10-03T01:14:22.556Z,84.72
2022-10-03T01:19:53.507Z,84.79
2022-10-03T01:25:02.317Z,84.90
2022-10-03T01:30:23.320Z,84.84
2022-10-03T01:35:31.758Z,84.90
2022-10-03T01:40:55.093Z,84.90
2022-10-03T01:46:09.129Z,84.99
2022-10-03T01:51:32.229Z,84.63
2022-10-03T01:56:49.813Z,84.79
2022-10-03T02:02:07.749Z,84.90
2022-10-03T02:07:35.298Z,84.96
2022-10-03T02:12:58.035Z,85.04
2022-10-03T02:18:23.846Z,84.95
2022-10-03T02:23:36.221Z,85.02
2022-10-03T02:28:54.899Z,84.95
2022-10-03T02:34:26.358Z,84.79
2022-10-03T02:39:51.597Z,84.52
2022-10-03T02:45:25.853Z,84.50
2022-10-03T02:50:46.263Z,84.46
2022-10-03T02:56:06.811Z,84.31
2022-10-03T03:01:35.368Z,84.06
2022-10-03T03:07:00.289Z,84.01
2022-10-03T03:12:11.574Z,84.20
2022-10-03T03:17:36.693Z,84.44
2022-10-03T03:22:56.932Z,84.16
2022-10-03T03:28:14.433Z,83.98
2022-10-03T03:33:31.755Z,83.81
2022-10-03T03:38:45.765Z,83.66
2022-10-03T03:44:04.202Z,83.64
2022-10-03T03:49:16.623Z,83.59
2022-10-03T03:54:46.285Z,83.57
2022-10-03T04:00:15.902Z,83.69
2022-10-03T04:05:36.269Z,83.81
2022-10-03T04:10:47.612Z,83.97
2022-10-03T04:16:20.754Z,83.70
2022-10-03T04:21:47.921Z,83.85
2022-10-03T04:27:05.214Z,83.74
2022-10-03T04:32:13.725Z,83.49
2022-10-03T04:37:37.242Z,83.62
2022-10-03T04:43:01.130Z,83.33
2022-10-03T04:48:18.556Z,83.57
2022-10-03T04:53:58.520Z,83.16
2022-10-03T04:59:12.531Z,83.45
2022-10-03T05:04:20.978Z,83.29
2022-10-03T05:09:30.554Z,83.65
2022-10-03T05:14:44.811Z,83.46
2022-10-03T05:19:53.242Z,83.40
2022-10-03T05:25:20.659Z,83.01
2022-10-03T05:30:48.815Z,83.21
2022-10-03T05:36:06.428Z,83.19
2022-10-03T05:41:25.761Z,83.51
2022-10-03T05:46:58.424Z,83.43
2022-10-03T05:52:26.514Z,83.97
2022-10-03T05:57:49.621Z,83.79
2022-10-03T06:03:13.598Z,84.17
2022-10-03T06:08:41.516Z,84.82
2022-10-03T06:14:14.551Z,84.38
2022-10-03T06:19:38.276Z,84.46
2022-10-03T06:25:14.230Z,84.37
2022-10-03T06:30:25.616Z,83.83
2022-10-03T06:35:48.986Z,84.66
2022-10-03T06:40:57.503Z,83.39
2022-10-03T06:46:17.848Z,83.36
2022-10-03T06:51:43.202Z,83.06
2022-10-03T06:57:11.292Z,83.35
2022-10-03T07:02:19.846Z,82.98
2022-10-03T07:07:48.458Z,82.84
2022-10-03T07:13:14.648Z,82.16
2022-10-03T07:18:48.995Z,82.46
2022-10-03T07:24:03.635Z,82.43
2022-10-03T07:29:23.645Z,82.13
2022-10-03T07:34:40.869Z,81.62
2022-10-03T07:40:10.644Z,81.42
2022-10-03T07:45:40.971Z,80.92
2022-10-03T07:51:17.959Z,81.35
2022-10-03T07:56:50.488Z,81.05
2022-10-03T08:02:01.476Z,79.95
2022-10-03T08:07:15.923Z,80.06
2022-10-03T08:12:34.120Z,79.37
2022-10-03T08:18:06.749Z,78.54
2022-10-03T08:23:41.860Z,78.31
2022-10-03T08:28:53.164Z,77.94
2022-10-03T08:34:18.769Z,77.64
2022-10-03T08:40:00.535Z,77.88
2022-10-03T08:45:14.975Z,77.53
2022-10-03T08:50:29.600Z,75.85
2022-10-03T08:55:43.531Z,75.51
2022-10-03T09:01:13.504Z,76.04
2022-10-03T09:06:58.689Z,74.64
2022-10-03T09:12:06.633Z,74.08
2022-10-03T09:17:21.259Z,74.32
2022-10-03T09:22:35.415Z,74.41
2022-10-03T09:27:52.957Z,73.97
2022-10-03T09:33:25.110Z,73.46
2022-10-03T09:38:56.237Z,72.67
2022-10-03T09:44:33.444Z,72.27
2022-10-03T09:50:01.262Z,72.07
2022-10-03T09:55:30.539Z,71.34
2022-10-03T10:00:39.270Z,72.19
2022-10-03T10:05:50.657Z,71.43
2022-10-03T10:11:16.757Z,70.30
2022-10-03T10:16:34.154Z,69.58
2022-10-03T10:21:57.585Z,69.25
2022-10-03T10:27:42.047Z,69.59
2022-10-03T10:33:16.650Z,69.42
2022-10-03T10:38:31.133Z,68.48
2022-10-03T10:44:11.549Z,69.00
2022-10-03T10:49:36.508Z,68.92
2022-10-03T10:54:49.219Z,69.31
2022-10-03T11:00:16.037Z,69.24
2022-10-03T11:05:45.583Z,68.46
2022-10-03T11:11:22.767Z,68.65
2022-10-03T11:16:50.562Z,68.70
2022-10-03T11:22:19.332Z,68.12
2022-10-03T11:27:48.618Z,66.51
2022-10-03T11:33:15.086Z,66.28
2022-10-03T11:38:26.188Z,67.37
2022-10-03T11:43:45.383Z,65.69
2022-10-03T11:48:59.664Z,64.91
2022-10-03T11:54:31.838Z,65.15
2022-10-03T11:59:54.373Z,64.82
2022-10-03T12:05:18.002Z,65.15
2022-10-03T12:10:44.911Z,64.01
2022-10-03T12:15:54.446Z,63.78
2022-10-03T12:21:20.963Z,62.83
2022-10-03T12:26:25.785Z,62.01
2022-10-03T12:31:35.878Z,62.30
2022-10-03T12:36:53.556Z,61.28
2022-10-03T12:42:14.859Z,62.37
2022-10-03T12:47:56.766Z,62.73
2022-10-03T12:53:02.573Z,63.37
2022-10-03T12:58:19.724Z,62.05
2022-10-03T13:03:50.141Z,61.77
2022-10-03T13:09:22.799Z,61.73
2022-10-03T13:14:46.504Z,61.55
2022-10-03T13:19:57.603Z,60.84
2022-10-03T13:25:06.105Z,61.80
2022-10-03T13:30:20.219Z,62.17
2022-10-03T13:35:53.315Z,61.31
2022-10-03T13:41:26.275Z,60.13
2022-10-03T13:46:42.301Z,60.16
2022-10-03T13:51:54.041Z,60.90
2022-10-03T13:57:02.549Z,61.23
2022-10-03T14:02:20.183Z,62.24
2022-10-03T14:07:55.460Z,63.09
2022-10-03T14:13:03.968Z,62.44
2022-10-03T14:18:21.489Z,63.13
2022-10-03T14:23:45.506Z,63.86
2022-10-03T14:29:29.246Z,63.26
2022-10-03T14:34:41.013Z,63.83
2022-10-03T14:39:58.565Z,64.05
2022-10-03T14:45:06.561Z,64.60
2022-10-03T14:50:23.846Z,63.97
2022-10-03T14:55:41.295Z,64.58
2022-10-03T15:00:49.711Z,64.64
2022-10-03T15:06:06.072Z,64.43
2022-10-03T15:11:13.980Z,64.19
2022-10-03T15:16:22.819Z,64.47
2022-10-03T15:21:29.677Z,64.26
2022-10-03T15:26:38.406Z,64.22
2022-10-03T15:31:48.680Z,64.05
2022-10-03T15:36:57.229Z,64.09
2022-10-03T15:42:12.096Z,64.03
2022-10-03T15:47:20.538Z,63.42
2022-10-03T15:52:28.965Z,63.65
2022-10-03T15:57:40.236Z,63.31
2022-10-03T16:02:50.348Z,63.21
2022-10-03T16:08:04.388Z,63.13
2022-10-03T16:13:35.590Z,63.82
2022-10-03T16:18:55.992Z,63.70
2022-10-03T16:24:04.414Z,64.12
2022-10-03T16:29:12.829Z,64.24
2022-10-03T16:34:21.219Z,64.24
2022-10-03T16:39:29.639Z,64.35
2022-10-03T16:44:49.863Z,64.60
2022-10-03T16:50:18.511Z,64.47
2022-10-03T16:55:29.932Z,65.86
2022-10-03T17:00:40.932Z,65.16
2022-10-03T17:05:48.559Z,65.25
2022-10-03T17:11:02.887Z,65.46
2022-10-03T17:16:28.177Z,65.75
2022-10-03T17:21:35.697Z,65.89
2022-10-03T17:26:47.247Z,66.64
2022-10-03T17:32:17.367Z,66.49
2022-10-03T17:37:42.161Z,67.15
2022-10-03T17:43:00.266Z,67.49
2022-10-03T17:48:31.149Z,67.55
2022-10-03T17:53:39.486Z,68.09
2022-10-03T17:58:51.242Z,68.40
2022-10-03T18:04:01.101Z,68.53
2022-10-03T18:09:12.483Z,68.78
2022-10-03T18:14:56.088Z,69.01
2022-10-03T18:20:13.755Z,68.91
2022-10-03T18:31:11.930Z,69.29
2022-10-03T18:36:25.914Z,69.74
2022-10-03T18:41:31.730Z,70.07
2022-10-03T18:46:46.571Z,70.37
2022-10-03T18:51:55.005Z,70.32
2022-10-03T18:57:19.886Z,70.55
2022-10-03T19:02:40.158Z,70.59
2022-10-03T19:07:48.664Z,70.71
2022-10-03T19:13:03.105Z,70.80
2022-10-03T19:18:17.110Z,70.70
2022-10-03T19:23:28.365Z,70.57
2022-10-03T19:29:03.135Z,70.59
2022-10-03T19:34:20.734Z,70.66
2022-10-03T19:39:29.449Z,70.56
2022-10-03T19:44:35.105Z,70.71
2022-10-03T19:49:53.302Z,70.61
2022-10-03T19:55:04.384Z,70.49
2022-10-03T20:00:18.532Z,70.35
2022-10-03T20:05:30.550Z,70.64
2022-10-03T20:10:50.928Z,70.71
2022-10-03T20:15:58.979Z,70.67
2022-10-03T20:21:07.650Z,70.78
2022-10-03T20:26:25.434Z,70.79
2022-10-03T20:31:33.120Z,70.86
2022-10-03T20:36:41.964Z,71.23
2022-10-03T20:42:02.762Z,71.07
2022-10-03T20:47:29.126Z,68.73
2022-10-03T20:52:36.237Z,70.40
2022-10-03T20:57:47.478Z,70.91
2022-10-03T21:03:10.838Z,71.35
2022-10-03T21:08:28.231Z,71.63
2022-10-03T21:13:47.771Z,71.80
2022-10-03T21:18:56.261Z,72.10
2022-10-03T21:24:16.941Z,72.18
2022-10-03T21:29:31.388Z,72.46
2022-10-03T21:34:55.049Z,72.79
2022-10-03T21:40:23.033Z,73.01
2022-10-03T21:45:46.462Z,73.36
2022-10-03T21:50:57.641Z,73.67
2022-10-03T21:56:09.399Z,73.87
2022-10-03T22:01:39.454Z,74.16
2022-10-03T22:07:04.517Z,74.14
2022-10-03T22:12:11.660Z,74.28
2022-10-03T22:17:32.435Z,74.49
2022-10-03T22:22:58.999Z,74.67
2022-10-03T22:28:13.440Z,74.74
2022-10-03T22:33:30.858Z,74.92
2022-10-03T22:38:37.473Z,74.90
2022-10-03T22:43:44.868Z,75.15
2022-10-03T22:48:53.296Z,75.11
2022-10-03T22:54:01.762Z,75.20
2022-10-03T22:59:10.525Z,75.44
2022-10-03T23:04:23.399Z,75.49
2022-10-03T23:09:35.142Z,75.61
2022-10-03T23:14:43.904Z,75.81
2022-10-03T23:20:18.425Z,75.89
2022-10-03T23:25:36.851Z,76.28
2022-10-03T23:30:48.039Z,76.51
2022-10-03T23:35:55.401Z,76.71
2022-10-03T23:41:06.557Z,76.91
2022-10-03T23:46:18.805Z,77.03
2022-10-03T23:51:27.484Z,77.06
2022-10-03T23:56:48.045Z,77.24
